Terminal Aerodrome Forecast
Issued by NWS

Home | Current Version | Previous Version | Text Only | Print | Product List | Glossary On
Versions: 1 2 3 4 5 6 7 8 9 10 11 12 13 14 15 16 17 18 19 20 21 22 23 24 25 26 27 28 29 30 31 32 33 34
000
FTUS43 KPAH 051522 AAA
TAFOWB
TAF AMD
KOWB 051522Z 0515/0612 08006KT P6SM OVC018
      TEMPO 0517/0520 BKN250
     FM052000 08005KT P6SM BKN250
     FM060300 06004KT 4SM -RA BR SCT006 OVC015=

USA.gov is the U.S. government's official web portal to all federal, state and local government web resources and services.